This is the latest recevied weather packets stored in our database for station/object DB2YI-13. If no packets are shown the sender has not sent any weather packets the latest 1 day(s).
| Time | Temp. | Humidity | Pressure | Rain* | Wind** | Luminosity | Snow |
|---|---|---|---|---|---|---|---|
| 1777999801 | 13.89° C | 91% | - | 4.57 mm | 0 m/s | - | - |
| 1777999201 | 13.33° C | 91% | - | 4.83 mm | 0 m/s | - | - |
| 1777998601 | 13.33° C | 91% | - | 4.57 mm | 0 m/s | - | - |
| 1777998001 | 13.89° C | 89% | - | 4.57 mm | 0 m/s | - | - |
| 1777997401 | 13.89° C | 88% | - | 3.81 mm | 0 m/s | - | - |
| 1777996201 | 13.89° C | 86% | - | 2.29 mm | 0.45 m/s, 0° | - | - |
| 1777995602 | 14.44° C | 84% | - | 1.78 mm | 0.45 m/s, 0° | - | - |
| 1777995005 | 15° C | 80% | - | 0.51 mm | 0.89 m/s, 0° | - | - |
| 1777994401 | 16.11° C | 78% | - | 0.25 mm | 1.34 m/s, 0° | - | - |
| 1777993803 | 16.67° C | 75% | - | 0.25 mm | 3.58 m/s, 0° | - | - |
| 1777993201 | 18.33° C | 68% | - | 0 mm | 0 m/s | - | - |
| 1777992603 | 19.44° C | 61% | - | 0 mm | 0 m/s | - | - |
| 1777992001 | 19.44° C | 60% | - | 0 mm | 0 m/s | - | - |
| 1777991401 | 19.44° C | 60% | - | 0 mm | 0 m/s | - | - |
| 1777990801 | 20° C | 60% | - | 0 mm | 0 m/s | - | - |
| 1777990201 | 19.44° C | 60% | - | 0 mm | 0 m/s | - | - |
| 1777989601 | 20° C | 60% | - | 0 mm | 0 m/s | - | - |
| 1777989001 | 19.44° C | 60% | - | 0 mm | 0 m/s | - | - |
| 1777988402 | 20° C | 61% | - | 0 mm | 0 m/s | - | - |
| 1777987802 | 20° C | 62% | - | 0 mm | 0 m/s | - | - |
| 1777987201 | 19.44° C | 65% | - | 0 mm | 0 m/s | - | - |
| 1777986601 | 19.44° C | 65% | - | 0 mm | 0 m/s | - | - |
| 1777986004 | 19.44° C | 66% | - | 0 mm | 0 m/s | - | - |
| 1777985401 | 19.44° C | 67% | - | 0 mm | 0 m/s | - | - |
| 1777984802 | 18.89° C | 67% | - | 0 mm | 0 m/s | - | - |
* Rain latest hour (hover to see other rain measurements)
** Current wind speed in m/s (hover to see current wind gust speed)